Archival Weather

Chicago O'Hare International

Chicago, Illinois (KORD)

Report from: Saturday, March 18, 2023 6:22 AM CDT
Current time: Saturday, March 2, 2024 4:32 AM CST

Current weather – Weather history – Daily summaries
Weather forecast

Temperature-10.6°C (12.9°F)
Wind chill-20.7°C (-5.3°F)
Dew point-16.1°C (3.0°F)
Winds 18 kts (9.3 m/s, 20.7 mph) West-Northwest (290°)
Wind gusts 26 kts (13.4 m/s, 29.9 mph)
Peak wind 26 kts (13.4 m/s, 29.9 mph) West-Northwest (300°) at 11:21
Visibility10 mi. (16.1 km)
Clouds Scattered clouds 2,200 ft. (671 m)
Ceiling: Broken clouds 3,000 ft. (914 m)
Altimeter29.93 in.Hg (1014 mB)
PrecipitiationTrace
Precip. events Snow began 10:59 AM
Snow ended 11:21 AM
Relative humidity64 %
Density altitude-3,183 ft. (-970 m)
Remarks Automated weather observing station with precipitation discriminator
Flight conditions Visual Meteorological Conditions
Raw dataKORD 181122Z 29018G26KT 10SM SCT022 BKN030 M11/M16 A2993 RMK AO2 PK WND 30026/1121 SNB1059E21 VCSH P0000 T11061161
An error has occurred. This application may no longer respond until reloaded. Reload 🗙